Time;durP1;ratioP1;P1;durP2;ratioP2;P2;SDS_P1;SDS_P2;PMS_P1;PMS_P2;Temp;Humidity;BMP_temperature;BMP_pressure;BME280_temperature;BME280_humidity;BME280_pressure;Samples;Min_cycle;Max_cycle;Signal;HPM_P1;HPM_P2
2021/05/04 00:04:23;;;;;;;3.70;1.40;;;17.50;58.10;;;;;;10566523;27;20028;-57
2021/05/04 00:09:24;;;;;;;2.55;1.70;;;17.50;58.00;;;;;;10584428;27;20043;-57
2021/05/04 00:14:25;;;;;;;4.10;1.55;;;17.50;58.10;;;;;;10588159;27;20424;-57
2021/05/04 00:19:26;;;;;;;2.92;1.15;;;17.60;58.10;;;;;;10593329;27;20088;-57
2021/05/04 00:24:26;;;;;;;2.05;1.23;;;17.60;58.00;;;;;;10587259;27;20051;-57
2021/05/04 00:29:27;;;;;;;2.50;1.40;;;17.60;58.00;;;;;;10583053;28;20028;-57
2021/05/04 00:34:28;;;;;;;2.30;1.63;;;17.60;57.90;;;;;;10578491;27;20476;-57
2021/05/04 00:39:34;;;;;;;2.42;1.42;;;17.60;57.90;;;;;;10605216;27;20046;-57
2021/05/04 00:44:35;;;;;;;2.65;1.15;;;17.60;57.90;;;;;;10592084;27;20032;-57
2021/05/04 00:49:35;;;;;;;3.42;1.33;;;17.60;57.90;;;;;;10585267;27;20035;-57
2021/05/04 00:54:36;;;;;;;1.92;1.13;;;17.60;57.90;;;;;;10582226;28;20031;-57
2021/05/04 00:59:38;;;;;;;3.40;1.42;;;17.60;57.90;;;;;;10580579;27;20375;-57
2021/05/04 01:04:39;;;;;;;1.95;1.15;;;17.60;57.90;;;;;;10623975;27;20038;-57
2021/05/04 01:09:40;;;;;;;2.03;1.00;;;17.60;58.50;;;;;;10571784;27;20027;-57
2021/05/04 01:14:41;;;;;;;2.70;1.30;;;17.60;57.80;;;;;;10581585;28;20033;-57
2021/05/04 01:19:41;;;;;;;1.95;1.23;;;17.70;57.90;;;;;;10581583;28;20387;-57
2021/05/04 01:24:43;;;;;;;2.22;0.93;;;17.60;57.80;;;;;;10590035;27;20115;-58
2021/05/04 01:29:44;;;;;;;1.58;0.70;;;17.60;57.80;;;;;;10586223;27;20024;-57
2021/05/04 01:34:45;;;;;;;2.28;1.20;;;17.60;57.80;;;;;;10591302;27;20038;-58
2021/05/04 01:39:52;;;;;;;1.48;0.98;;;17.60;57.80;;;;;;10591062;28;20352;-57
2021/05/04 01:44:52;;;;;;;1.08;0.90;;;17.60;57.80;;;;;;10581076;28;20115;-58
2021/05/04 01:49:53;;;;;;;2.03;1.20;;;17.60;57.80;;;;;;10594927;28;20654;-57
2021/05/04 01:54:54;;;;;;;2.55;1.27;;;17.60;57.80;;;;;;10580694;28;20055;-57
2021/05/04 01:59:55;;;;;;;2.17;0.90;;;17.60;57.80;;;;;;10594257;28;20488;-57
2021/05/04 02:04:55;;;;;;;1.92;1.35;;;17.60;57.80;;;;;;10580628;28;20123;-57
2021/05/04 02:09:56;;;;;;;2.22;1.10;;;17.60;57.80;;;;;;10580570;28;20024;-57
2021/05/04 02:14:57;;;;;;;2.10;1.48;;;17.60;57.70;;;;;;10576149;28;20409;-57
2021/05/04 02:19:58;;;;;;;1.38;0.90;;;17.60;57.60;;;;;;10581388;27;20031;-57
2021/05/04 02:25:00;;;;;;;1.75;1.17;;;17.60;57.60;;;;;;10592932;27;20035;-57
2021/05/04 02:30:03;;;;;;;5.30;1.02;;;17.60;57.70;;;;;;10609791;27;20040;-57
2021/05/04 02:35:06;;;;;;;1.58;0.90;;;17.60;57.60;;;;;;10601084;27;20122;-57
2021/05/04 02:40:07;;;;;;;2.65;0.98;;;17.60;57.60;;;;;;10592056;27;20114;-57
2021/05/04 02:45:09;;;;;;;1.92;1.15;;;17.60;57.60;;;;;;10600909;27;20387;-57
2021/05/04 02:50:10;;;;;;;2.67;1.13;;;17.60;57.50;;;;;;10590990;27;20399;-57
2021/05/04 02:55:13;;;;;;;1.00;0.75;;;17.60;57.50;;;;;;10587192;28;20035;-57
2021/05/04 03:00:15;;;;;;;1.58;0.82;;;17.60;57.50;;;;;;10610408;27;20084;-57
2021/05/04 03:05:16;;;;;;;2.08;1.10;;;17.60;57.50;;;;;;10629244;27;20035;-57
2021/05/04 03:10:17;;;;;;;2.00;0.95;;;17.60;57.50;;;;;;10590861;27;20032;-57
2021/05/04 03:15:18;;;;;;;1.65;1.05;;;17.60;57.40;;;;;;10607353;27;20479;-57
2021/05/04 03:20:18;;;;;;;1.55;0.85;;;17.60;57.40;;;;;;10607095;27;20143;-57
2021/05/04 03:25:19;;;;;;;2.53;1.00;;;17.60;57.40;;;;;;10586886;27;20498;-57
2021/05/04 03:30:20;;;;;;;1.30;0.85;;;17.60;57.30;;;;;;10592267;27;20047;-57
2021/05/04 03:35:21;;;;;;;1.15;0.90;;;17.60;57.30;;;;;;10585339;28;20044;-57
2021/05/04 03:40:22;;;;;;;1.25;1.00;;;17.60;57.40;;;;;;10586053;27;20020;-57
2021/05/04 03:45:23;;;;;;;1.80;1.00;;;17.60;57.30;;;;;;10585277;28;20042;-57
2021/05/04 03:50:27;;;;;;;1.73;0.95;;;17.60;57.30;;;;;;10585172;27;20031;-58
2021/05/04 03:55:29;;;;;;;1.30;0.75;;;17.60;57.30;;;;;;10584690;28;20455;-57
2021/05/04 04:00:29;;;;;;;1.08;0.75;;;17.60;57.30;;;;;;10598514;27;20041;-58
2021/05/04 04:05:30;;;;;;;1.63;0.68;;;17.60;57.30;;;;;;10586443;27;20142;-58
2021/05/04 04:10:31;;;;;;;0.88;0.60;;;17.60;57.20;;;;;;10584043;27;20039;-57
2021/05/04 04:15:32;;;;;;;3.33;0.90;;;17.60;57.30;;;;;;10599575;27;20035;-58
2021/05/04 04:20:33;;;;;;;1.50;0.70;;;17.70;57.30;;;;;;10586389;27;20426;-57
2021/05/04 04:25:33;;;;;;;1.92;0.90;;;17.60;57.30;;;;;;10576356;28;20024;-57
2021/05/04 04:30:34;;;;;;;2.45;1.02;;;17.60;57.20;;;;;;10587339;27;20092;-57
2021/05/04 04:35:35;;;;;;;1.27;0.65;;;17.60;57.20;;;;;;10583325;27;20046;-57
2021/05/04 04:40:35;;;;;;;2.45;1.02;;;17.60;57.20;;;;;;10591663;27;20370;-58
2021/05/04 04:45:36;;;;;;;5.57;1.20;;;17.60;57.20;;;;;;10583456;27;20110;-57
2021/05/04 04:50:37;;;;;;;3.08;1.00;;;17.60;58.00;;;;;;10595892;27;20039;-57
2021/05/04 04:55:38;;;;;;;4.07;1.13;;;17.60;58.40;;;;;;10596454;27;20031;-57
2021/05/04 05:00:38;;;;;;;6.18;1.40;;;17.70;58.40;;;;;;10550920;28;20061;-58
2021/05/04 05:05:39;;;;;;;11.73;1.77;;;17.70;59.40;;;;;;10582884;28;20223;-57
2021/05/04 05:10:40;;;;;;;13.10;1.42;;;17.70;59.00;;;;;;10585088;27;20031;-57
2021/05/04 05:15:41;;;;;;;10.10;1.58;;;17.70;60.20;;;;;;10582540;27;20059;-57
2021/05/04 05:20:41;;;;;;;12.95;3.22;;;17.70;60.60;;;;;;10594411;27;20055;-58
2021/05/04 05:25:42;;;;;;;11.48;2.80;;;17.70;60.30;;;;;;10581700;28;20080;-57
2021/05/04 05:30:44;;;;;;;15.57;2.22;;;17.70;60.30;;;;;;10589811;27;20027;-57
2021/05/04 05:35:45;;;;;;;18.73;2.78;;;17.70;60.20;;;;;;10581581;27;20051;-57
2021/05/04 05:40:45;;;;;;;27.33;3.45;;;17.70;60.60;;;;;;10602896;28;20098;-57
2021/05/04 05:45:46;;;;;;;20.02;2.90;;;17.70;60.50;;;;;;10617346;28;20031;-57
2021/05/04 05:50:47;;;;;;;32.55;3.72;;;17.70;60.80;;;;;;10598218;28;20024;-58
2021/05/04 05:55:48;;;;;;;27.15;3.88;;;17.60;60.70;;;;;;10584805;27;20030;-58
2021/05/04 06:00:51;;;;;;;25.35;5.30;;;17.60;61.50;;;;;;10621058;27;20034;-59
2021/05/04 06:05:52;;;;;;;17.70;3.75;;;17.60;61.70;;;;;;10593069;27;20118;-59
2021/05/04 06:10:53;;;;;;;17.63;4.18;;;17.60;60.80;;;;;;10609922;27;20522;-59
2021/05/04 06:15:54;;;;;;;17.70;3.65;;;17.60;60.60;;;;;;10588731;27;20032;-61
2021/05/04 06:20:54;;;;;;;23.83;4.60;;;17.60;60.70;;;;;;10577974;27;20706;-61
2021/05/04 06:25:55;;;;;;;22.67;4.55;;;17.50;61.20;;;;;;10587385;27;20581;-60
2021/05/04 06:30:56;;;;;;;21.05;3.75;;;17.50;60.70;;;;;;10615698;27;20522;-59
2021/05/04 06:35:57;;;;;;;17.23;3.25;;;17.60;60.40;;;;;;10628821;27;20095;-58
2021/05/04 06:41:00;;;;;;;14.07;3.30;;;17.60;60.30;;;;;;10615529;27;20387;-59
2021/05/04 06:46:03;;;;;;;9.68;2.67;;;17.60;60.20;;;;;;10584548;28;20024;-59
2021/05/04 06:51:04;;;;;;;14.38;3.22;;;17.60;60.10;;;;;;10579839;27;20032;-59
2021/05/04 06:56:05;;;;;;;10.30;4.38;;;17.60;60.00;;;;;;10585741;28;20024;-59
2021/05/04 07:01:05;;;;;;;11.88;2.60;;;17.70;59.90;;;;;;10586581;28;20548;-59
2021/05/04 07:06:06;;;;;;;15.20;3.50;;;17.70;59.80;;;;;;10585723;28;20119;-59
2021/05/04 07:11:07;;;;;;;11.10;2.20;;;17.60;59.80;;;;;;10594142;27;20027;-59
2021/05/04 07:16:07;;;;;;;8.25;2.38;;;17.60;59.80;;;;;;10616669;27;20067;-59
2021/05/04 07:21:09;;;;;;;10.57;2.75;;;17.60;59.70;;;;;;10567620;28;20076;-59
2021/05/04 07:26:13;;;;;;;10.98;2.35;;;17.70;59.70;;;;;;10586283;27;20023;-59
2021/05/04 07:31:13;;;;;;;12.75;2.67;;;17.60;59.70;;;;;;10627877;27;20034;-59
2021/05/04 07:36:14;;;;;;;9.07;2.15;;;17.60;59.70;;;;;;10605755;27;20392;-59
2021/05/04 07:41:15;;;;;;;11.57;2.30;;;17.60;59.80;;;;;;10589826;27;20425;-59
2021/05/04 07:46:16;;;;;;;8.13;2.42;;;17.60;59.60;;;;;;10598633;27;20055;-59
2021/05/04 07:51:17;;;;;;;8.32;2.20;;;17.60;59.60;;;;;;10584476;28;20038;-59
2021/05/04 07:56:18;;;;;;;6.18;1.80;;;17.60;59.70;;;;;;10584301;28;20020;-59
2021/05/04 08:01:18;;;;;;;5.78;2.33;;;17.60;59.60;;;;;;10584019;28;20106;-58
2021/05/04 08:06:19;;;;;;;8.75;2.53;;;17.50;59.60;;;;;;10598856;27;20133;-58
2021/05/04 08:11:20;;;;;;;6.15;1.60;;;17.50;59.50;;;;;;10626385;27;20114;-58
2021/05/04 08:16:20;;;;;;;8.73;2.15;;;17.50;59.50;;;;;;10610833;27;20084;-58
2021/05/04 08:21:22;;;;;;;11.68;1.65;;;17.60;59.50;;;;;;10588525;27;20027;-58
2021/05/04 08:26:24;;;;;;;9.07;2.83;;;17.60;59.40;;;;;;10591445;27;20352;-58
2021/05/04 08:31:25;;;;;;;7.18;2.20;;;17.60;59.40;;;;;;10583133;28;20031;-57
2021/05/04 08:36:26;;;;;;;3.92;1.90;;;17.60;59.40;;;;;;10582590;28;20043;-58
2021/05/04 08:41:28;;;;;;;5.30;1.90;;;17.60;59.40;;;;;;10590729;27;20387;-57
2021/05/04 08:46:34;;;;;;;4.93;2.03;;;17.60;59.40;;;;;;10591578;27;20051;-58
2021/05/04 08:51:37;;;;;;;5.47;1.75;;;17.60;59.40;;;;;;10592598;27;20368;-58
2021/05/04 08:56:42;;;;;;;4.88;1.73;;;17.60;59.50;;;;;;10580032;27;20063;-59
2021/05/04 09:01:43;;;;;;;5.65;1.42;;;17.60;59.40;;;;;;10581412;28;20023;-58
2021/05/04 09:06:48;;;;;;;6.68;2.63;;;17.60;59.40;;;;;;10581833;28;20084;-58
2021/05/04 09:22:17;;;;;;;5.13;1.88;;;17.50;59.50;;;;;;10591521;27;20337;-58
2021/05/04 09:27:18;;;;;;;6.28;1.65;;;17.60;59.40;;;;;;10594726;27;20107;-57
2021/05/04 09:32:28;;;;;;;3.33;1.17;;;17.60;59.40;;;;;;10576741;27;20493;-58
2021/05/04 09:37:37;;;;;;;7.03;1.48;;;17.60;59.40;;;;;;10581519;27;20092;-58
2021/05/04 09:42:39;;;;;;;7.28;2.40;;;17.60;59.60;;;;;;10566804;28;20480;-60
2021/05/04 09:47:40;;;;;;;8.35;1.95;;;17.60;59.60;;;;;;10538309;28;20030;-60
2021/05/04 09:52:45;;;;;;;3.85;1.25;;;17.60;59.70;;;;;;10538566;28;20031;-60
2021/05/04 09:57:49;;;;;;;6.15;1.63;;;17.50;59.60;;;;;;10538460;28;20107;-60
2021/05/04 10:02:52;;;;;;;6.20;1.50;;;17.60;63.90;;;;;;10538519;28;20020;-60
2021/05/04 10:07:55;;;;;;;10.80;1.65;;;17.60;63.80;;;;;;10566494;28;20485;-60
2021/05/04 10:12:57;;;;;;;3.88;1.08;;;17.60;63.80;;;;;;10580092;28;20035;-60
2021/05/04 10:17:57;;;;;;;5.60;1.38;;;17.60;64.00;;;;;;10534715;28;20028;-59
2021/05/04 10:23:00;;;;;;;6.65;1.60;;;17.60;63.80;;;;;;10552303;28;20024;-58
2021/05/04 10:28:01;;;;;;;6.28;1.48;;;17.70;63.50;;;;;;10547933;28;20096;-58
2021/05/04 10:33:09;;;;;;;4.50;1.30;;;17.70;63.70;;;;;;10561976;28;20039;-58
2021/05/04 10:38:17;;;;;;;8.23;1.52;;;17.70;63.70;;;;;;10563137;28;20048;-58
2021/05/04 10:43:21;;;;;;;6.82;1.52;;;17.70;63.50;;;;;;10542779;28;20125;-59
2021/05/04 10:48:45;;;;;;;5.13;1.40;;;17.70;63.40;;;;;;10569569;28;20031;-58
2021/05/04 10:53:52;;;;;;;3.60;1.73;;;17.70;63.40;;;;;;10587436;28;20030;-59
2021/05/04 10:58:55;;;;;;;7.63;1.85;;;17.70;63.20;;;;;;10561951;28;20031;-58
2021/05/04 11:03:58;;;;;;;8.52;1.75;;;17.70;63.10;;;;;;10586613;28;20027;-58
2021/05/04 11:09:05;;;;;;;5.72;1.63;;;17.70;62.70;;;;;;10562263;28;20055;-58
2021/05/04 11:14:14;;;;;;;8.23;2.42;;;17.60;62.60;;;;;;10543980;28;20059;-57
2021/05/04 11:19:29;;;;;;;5.00;1.60;;;17.60;62.70;;;;;;10557222;28;20085;-58
2021/05/04 11:24:29;;;;;;;8.90;2.50;;;17.60;62.50;;;;;;10557189;28;20084;-58
2021/05/04 11:29:33;;;;;;;1.67;1.05;;;17.60;62.40;;;;;;10574828;28;20436;-58
2021/05/04 11:34:45;;;;;;;6.68;1.42;;;17.60;62.30;;;;;;10557551;28;20054;-58
2021/05/04 11:39:57;;;;;;;5.35;1.50;;;17.50;62.30;;;;;;10580740;28;20069;-58
2021/05/04 11:45:13;;;;;;;4.30;1.40;;;17.50;62.20;;;;;;10543036;28;20021;-58
2021/05/04 11:50:21;;;;;;;4.47;1.25;;;17.50;62.20;;;;;;10554909;28;20059;-58
2021/05/04 11:55:31;;;;;;;6.60;1.20;;;17.50;62.00;;;;;;10534513;28;20024;-58
2021/05/04 12:00:37;;;;;;;4.53;1.02;;;17.50;62.00;;;;;;10545173;28;20055;-58
2021/05/04 12:05:39;;;;;;;3.97;1.38;;;17.50;61.90;;;;;;10579072;28;20028;-58
2021/05/04 12:10:49;;;;;;;5.15;1.70;;;17.40;61.80;;;;;;10561676;28;20118;-59
2021/05/04 12:15:53;;;;;;;6.15;1.10;;;17.40;61.60;;;;;;10564158;28;20106;-58
2021/05/04 12:20:57;;;;;;;10.85;1.40;;;17.40;61.50;;;;;;10555349;28;20039;-58
2021/05/04 12:26:19;;;;;;;15.95;1.60;;;17.40;61.50;;;;;;10559849;28;20115;-61
2021/05/04 12:31:28;;;;;;;15.70;2.85;;;17.50;62.00;;;;;;10539896;28;20038;-60
2021/05/04 12:41:50;;;;;;;26.38;3.83;;;17.50;62.10;;;;;;10558902;28;20040;-59
2021/05/04 12:47:09;;;;;;;19.83;2.55;;;17.60;62.10;;;;;;10563555;28;20076;-61
2021/05/04 12:52:11;;;;;;;29.50;4.77;;;17.60;61.70;;;;;;10556697;28;20036;-61
2021/05/04 12:57:21;;;;;;;28.30;5.28;;;17.60;61.60;;;;;;10540822;28;20039;-61
2021/05/04 13:02:33;;;;;;;27.63;5.15;;;17.60;61.80;;;;;;10561999;28;20036;-60
2021/05/04 13:07:47;;;;;;;24.65;4.65;;;17.60;61.70;;;;;;10542913;28;20036;-59
2021/05/04 13:34:36;;;;;;;24.52;3.85;;;17.60;61.80;;;;;;10566500;28;20039;-58
2021/05/04 13:50:08;;;;;;;24.35;4.93;;;17.70;62.20;;;;;;10528115;28;20461;-59
2021/05/04 13:55:10;;;;;;;21.63;4.43;;;17.70;61.80;;;;;;10563140;28;20058;-62
2021/05/04 14:00:18;;;;;;;21.05;4.30;;;17.60;61.60;;;;;;10556322;28;20096;-61
2021/05/04 14:26:23;;;;;;;13.93;3.70;;;17.50;61.80;;;;;;10571212;28;20071;-60
2021/05/04 14:31:24;;;;;;;14.10;3.13;;;17.50;61.90;;;;;;10527681;28;20408;-60
2021/05/04 14:47:22;;;;;;;19.65;3.58;;;17.40;61.70;;;;;;10579421;28;20039;-60
2021/05/04 14:57:34;;;;;;;13.73;3.13;;;17.40;63.00;;;;;;10561669;28;20044;-61
2021/05/04 15:02:35;;;;;;;12.32;3.20;;;17.40;62.30;;;;;;10547244;28;20024;-61
2021/05/04 15:07:36;;;;;;;11.48;2.35;;;17.40;62.30;;;;;;10544651;28;20107;-60
2021/05/04 15:12:36;;;;;;;11.77;2.67;;;17.40;62.30;;;;;;10559882;28;20111;-60
2021/05/04 15:17:57;;;;;;;10.35;2.75;;;17.30;62.00;;;;;;10537744;28;20032;-60
2021/05/04 15:22:58;;;;;;;16.75;3.58;;;17.40;61.80;;;;;;10572775;28;20035;-60
2021/05/04 15:27:59;;;;;;;9.80;1.67;;;17.40;61.70;;;;;;10571295;28;20371;-59
2021/05/04 15:33:03;;;;;;;8.63;2.38;;;17.40;61.40;;;;;;10578739;28;20577;-59
2021/05/04 15:38:08;;;;;;;10.30;2.67;;;17.40;61.40;;;;;;10525788;28;20048;-58
2021/05/04 15:43:11;;;;;;;17.88;3.22;;;17.40;61.80;;;;;;10554869;28;20036;-57
2021/05/04 15:48:29;;;;;;;33.03;4.70;;;17.40;63.40;;;;;;10562839;28;20367;-59
2021/05/04 15:53:59;;;;;;;19.10;4.22;;;17.50;63.00;;;;;;10565981;28;20035;-56
2021/05/04 16:09:41;;;;;;;13.10;3.80;;;17.50;61.30;;;;;;10561781;28;20039;-54
2021/05/04 16:14:42;;;;;;;16.85;4.20;;;17.40;61.10;;;;;;10552738;28;20472;-53
2021/05/04 16:19:45;;;;;;;26.67;4.75;;;17.50;61.50;;;;;;10548750;28;20115;-56
2021/05/04 16:24:52;;;;;;;16.05;3.05;;;17.50;61.00;;;;;;10562693;28;20016;-51
2021/05/04 16:34:59;;;;;;;13.80;3.30;;;17.60;64.70;;;;;;10540518;28;20048;-52
2021/05/04 16:40:00;;;;;;;14.88;3.53;;;17.70;64.90;;;;;;10544056;28;20031;-54
2021/05/04 16:45:00;;;;;;;16.35;3.22;;;17.70;63.70;;;;;;10540390;28;20035;-53
2021/05/04 16:50:02;;;;;;;15.90;3.60;;;17.80;64.10;;;;;;10554797;28;20035;-55
2021/05/04 16:55:03;;;;;;;23.95;4.50;;;17.80;64.10;;;;;;10565086;28;20135;-54
2021/05/04 17:00:05;;;;;;;29.00;4.07;;;17.80;64.80;;;;;;10545831;28;20387;-52
2021/05/04 17:05:06;;;;;;;17.65;3.67;;;17.80;63.80;;;;;;10548727;28;20109;-54
2021/05/04 17:15:09;;;;;;;13.70;3.55;;;17.70;63.50;;;;;;10561422;28;20135;-54
2021/05/04 17:20:12;;;;;;;12.15;3.22;;;17.80;63.90;;;;;;10565220;28;20031;-53
2021/05/04 17:25:14;;;;;;;13.07;2.92;;;17.70;63.90;;;;;;10561748;28;20481;-55
2021/05/04 17:30:16;;;;;;;15.20;3.10;;;17.70;63.90;;;;;;10556099;28;20039;-47
2021/05/04 17:35:17;;;;;;;21.85;3.38;;;17.70;63.60;;;;;;10569860;28;20040;-48
2021/05/04 17:40:18;;;;;;;18.38;3.50;;;17.60;63.90;;;;;;10546369;28;20027;-48
2021/05/04 17:45:22;;;;;;;14.32;2.85;;;17.60;64.00;;;;;;10534326;28;20383;-48
2021/05/04 17:50:24;;;;;;;23.10;3.28;;;17.60;64.00;;;;;;10567697;28;20020;-50
2021/05/04 17:55:26;;;;;;;10.63;2.90;;;17.60;64.00;;;;;;10562377;28;20492;-49
2021/05/04 18:00:26;;;;;;;11.85;2.40;;;17.60;64.00;;;;;;10538124;28;20027;-51
2021/05/04 18:05:28;;;;;;;12.40;2.97;;;17.60;64.00;;;;;;10554149;28;20015;-48
2021/05/04 18:10:29;;;;;;;12.20;3.05;;;17.60;64.10;;;;;;10554439;28;20032;-47
2021/05/04 18:21:11;;;;;;;7.15;2.22;;;17.60;64.20;;;;;;10580361;28;20028;-50
2021/05/04 18:26:10;;;;;;;13.88;2.10;;;17.60;64.30;;;;;;10557123;28;20130;-49
2021/05/04 18:31:14;;;;;;;10.48;2.65;;;17.50;64.50;;;;;;10561293;28;20106;-54
2021/05/04 19:24:04;;;;;;;8.55;2.10;;;17.40;64.00;;;;;;10563157;28;20028;-50
2021/05/04 19:41:48;;;;;;;12.65;1.58;;;17.40;64.40;;;;;;10567196;28;20040;-51
2021/05/04 20:16:41;;;;;;;5.68;1.48;;;17.50;63.80;;;;;;10541895;28;20094;-48
2021/05/04 20:21:42;;;;;;;5.03;1.38;;;17.50;63.80;;;;;;10567868;28;20058;-50
2021/05/04 20:26:43;;;;;;;6.95;1.05;;;17.50;63.60;;;;;;10560549;28;20081;-53
2021/05/04 20:31:44;;;;;;;4.10;1.42;;;17.50;63.50;;;;;;10541619;28;20036;-48
2021/05/04 20:36:44;;;;;;;2.38;0.90;;;17.50;63.50;;;;;;10522519;28;20508;-52
2021/05/04 20:41:46;;;;;;;5.22;1.23;;;17.50;63.40;;;;;;10558938;28;20020;-50
2021/05/04 20:46:47;;;;;;;3.25;1.27;;;17.50;63.30;;;;;;10551985;28;20073;-48
2021/05/04 20:51:48;;;;;;;3.72;1.10;;;17.60;63.30;;;;;;10541327;28;20028;-51
2021/05/04 20:56:49;;;;;;;5.68;1.42;;;17.50;63.20;;;;;;10556766;28;20042;-48
2021/05/04 21:01:49;;;;;;;2.33;1.00;;;17.50;63.20;;;;;;10544792;28;20130;-50
2021/05/04 21:06:51;;;;;;;4.10;1.27;;;17.50;63.10;;;;;;10560333;28;20456;-47
2021/05/04 21:16:53;;;;;;;4.75;0.98;;;17.50;62.90;;;;;;10539760;28;20036;-47
2021/05/04 21:27:13;;;;;;;2.85;0.93;;;17.60;62.90;;;;;;10553108;28;20499;-49
2021/05/04 21:32:14;;;;;;;3.17;1.13;;;17.50;62.80;;;;;;10539572;28;20032;-47
2021/05/04 21:37:14;;;;;;;5.32;1.45;;;17.50;62.80;;;;;;10538719;28;20119;-52
2021/05/04 21:42:15;;;;;;;2.53;1.23;;;17.50;62.70;;;;;;10554360;28;20035;-49
2021/05/04 21:47:17;;;;;;;4.40;0.80;;;17.50;62.70;;;;;;10539052;28;20028;-51
2021/05/04 21:52:18;;;;;;;2.63;1.20;;;17.60;62.70;;;;;;10561782;28;20040;-48
2021/05/04 21:57:18;;;;;;;4.70;1.05;;;17.60;62.60;;;;;;10536237;28;20466;-47
2021/05/04 22:02:22;;;;;;;4.05;1.15;;;17.60;62.50;;;;;;10546784;28;20112;-47
2021/05/04 22:07:23;;;;;;;3.25;1.13;;;17.60;62.40;;;;;;10553299;28;20036;-48
2021/05/04 22:12:27;;;;;;;3.20;0.68;;;17.60;62.30;;;;;;10521641;28;20111;-47
2021/05/04 22:17:47;;;;;;;2.63;1.00;;;17.60;62.30;;;;;;10565231;28;20040;-47
2021/05/04 22:39:05;;;;;;;4.03;1.27;;;17.60;62.10;;;;;;10584979;28;20491;-50
2021/05/04 23:16:12;;;;;;;1.30;0.50;;;17.60;61.70;;;;;;10566480;28;20395;-50
2021/05/04 23:21:18;;;;;;;2.03;0.70;;;17.60;61.60;;;;;;10552531;28;20023;-52
2021/05/04 23:26:20;;;;;;;1.23;0.55;;;17.60;61.60;;;;;;10576975;28;20425;-48
2021/05/04 23:31:21;;;;;;;2.45;0.70;;;17.60;61.50;;;;;;10571556;28;20031;-48
2021/05/04 23:36:22;;;;;;;2.88;0.50;;;17.60;61.50;;;;;;10543031;28;20040;-53
2021/05/04 23:41:24;;;;;;;2.55;0.70;;;17.60;61.50;;;;;;10543262;28;20077;-52
2021/05/04 23:46:27;;;;;;;1.65;0.60;;;17.60;61.50;;;;;;10552150;28;20027;-51
2021/05/04 23:51:28;;;;;;;1.80;0.80;;;17.60;61.40;;;;;;10560905;28;20028;-51
2021/05/04 23:56:29;;;;;;;2.67;1.00;;;17.60;61.40;;;;;;10558995;28;20043;-50
